Mirfield, United Kingdom
Current Conditions -  °F | °C
As of 11:20 PM on Tuesday 25 Nov 2014 (Local Time) from EGNM Reporting Station
Scattered Clouds Scattered Clouds  
Wind Chill: 34°   Ceiling: Unl
Heat Index: 39°   Visibility: 6mi
Dew Point: 37°   Wind: 7mph
Humidity: 93%   Direction: 20°NNE
Pressure: 30.09"   Gusts: NA
Location:  53.67°N, 1.7°W
Report Text: EGNM 252320Z 02006KT 350V060 9999 FEW020 SCT030 04/03 Q1019
Loading
Personal Weather Stations






























Interactive Weather Map New forecast layout! Learn more

10-Day Weather Forecast

Advertisements
Track Severe Weather on mobile